sensor_id;sensor_type;location;lat;lon;timestamp;P1;durP1;ratioP1;P2;durP2;ratioP2
22628;SDS011;11481;53.694;9.910;2022-12-24T00:00:36;2.63;;;1.15;;
22628;SDS011;11481;53.694;9.910;2022-12-24T00:03:03;1.23;;;0.52;;
22628;SDS011;11481;53.694;9.910;2022-12-24T00:05:29;3.13;;;1.40;;
22628;SDS011;11481;53.694;9.910;2022-12-24T00:07:56;6.47;;;0.82;;
22628;SDS011;11481;53.694;9.910;2022-12-24T00:10:23;3.97;;;1.85;;
22628;SDS011;11481;53.694;9.910;2022-12-24T00:12:49;1.70;;;1.13;;
22628;SDS011;11481;53.694;9.910;2022-12-24T00:15:16;2.35;;;1.02;;
22628;SDS011;11481;53.694;9.910;2022-12-24T00:17:43;2.85;;;1.63;;
22628;SDS011;11481;53.694;9.910;2022-12-24T00:20:09;3.97;;;0.73;;
22628;SDS011;11481;53.694;9.910;2022-12-24T00:22:36;15.38;;;2.95;;
22628;SDS011;11481;53.694;9.910;2022-12-24T00:25:03;5.25;;;1.10;;
22628;SDS011;11481;53.694;9.910;2022-12-24T00:27:30;4.00;;;1.83;;
22628;SDS011;11481;53.694;9.910;2022-12-24T00:29:56;3.30;;;1.52;;
22628;SDS011;11481;53.694;9.910;2022-12-24T00:32:23;2.28;;;0.95;;
22628;SDS011;11481;53.694;9.910;2022-12-24T00:34:49;2.50;;;1.52;;
22628;SDS011;11481;53.694;9.910;2022-12-24T00:37:16;0.68;;;0.65;;
22628;SDS011;11481;53.694;9.910;2022-12-24T00:39:42;1.92;;;1.00;;
22628;SDS011;11481;53.694;9.910;2022-12-24T00:42:09;2.00;;;1.42;;
22628;SDS011;11481;53.694;9.910;2022-12-24T00:44:36;3.67;;;1.65;;
22628;SDS011;11481;53.694;9.910;2022-12-24T00:47:02;5.63;;;0.60;;
22628;SDS011;11481;53.694;9.910;2022-12-24T00:49:37;1.80;;;0.98;;
22628;SDS011;11481;53.694;9.910;2022-12-24T00:52:03;5.13;;;1.73;;
22628;SDS011;11481;53.694;9.910;2022-12-24T00:54:30;8.20;;;2.30;;
22628;SDS011;11481;53.694;9.910;2022-12-24T00:56:57;1.85;;;1.25;;
22628;SDS011;11481;53.694;9.910;2022-12-24T00:59:23;13.65;;;2.85;;
22628;SDS011;11481;53.694;9.910;2022-12-24T01:01:50;3.45;;;1.67;;
22628;SDS011;11481;53.694;9.910;2022-12-24T01:04:17;5.53;;;2.05;;
22628;SDS011;11481;53.694;9.910;2022-12-24T01:07:02;7.03;;;1.55;;
22628;SDS011;11481;53.694;9.910;2022-12-24T01:09:30;3.40;;;1.70;;
22628;SDS011;11481;53.694;9.910;2022-12-24T01:11:57;7.68;;;2.05;;
22628;SDS011;11481;53.694;9.910;2022-12-24T01:14:23;4.60;;;1.33;;
22628;SDS011;11481;53.694;9.910;2022-12-24T01:16:50;2.45;;;1.67;;
22628;SDS011;11481;53.694;9.910;2022-12-24T01:19:16;5.05;;;1.83;;
22628;SDS011;11481;53.694;9.910;2022-12-24T01:21:43;3.80;;;2.35;;
22628;SDS011;11481;53.694;9.910;2022-12-24T01:24:13;4.25;;;1.60;;
22628;SDS011;11481;53.694;9.910;2022-12-24T01:26:41;2.40;;;1.50;;
22628;SDS011;11481;53.694;9.910;2022-12-24T01:29:08;8.50;;;2.90;;
22628;SDS011;11481;53.694;9.910;2022-12-24T01:31:35;6.60;;;2.60;;
22628;SDS011;11481;53.694;9.910;2022-12-24T01:34:01;2.50;;;1.73;;
22628;SDS011;11481;53.694;9.910;2022-12-24T01:36:28;4.95;;;3.47;;
22628;SDS011;11481;53.694;9.910;2022-12-24T01:38:55;9.40;;;2.97;;
22628;SDS011;11481;53.694;9.910;2022-12-24T01:41:22;12.55;;;1.98;;
22628;SDS011;11481;53.694;9.910;2022-12-24T01:47:05;9.65;;;2.08;;
22628;SDS011;11481;53.694;9.910;2022-12-24T01:49:52;14.50;;;2.00;;
22628;SDS011;11481;53.694;9.910;2022-12-24T01:52:23;9.15;;;1.73;;
22628;SDS011;11481;53.694;9.910;2022-12-24T01:54:59;3.40;;;1.42;;
22628;SDS011;11481;53.694;9.910;2022-12-24T01:57:32;7.40;;;2.08;;
22628;SDS011;11481;53.694;9.910;2022-12-24T02:00:04;9.63;;;3.72;;
22628;SDS011;11481;53.694;9.910;2022-12-24T02:02:35;4.93;;;1.55;;
22628;SDS011;11481;53.694;9.910;2022-12-24T02:05:07;6.15;;;2.38;;
22628;SDS011;11481;53.694;9.910;2022-12-24T02:07:45;4.28;;;1.83;;
22628;SDS011;11481;53.694;9.910;2022-12-24T02:10:13;2.65;;;1.13;;
22628;SDS011;11481;53.694;9.910;2022-12-24T02:12:41;4.82;;;2.50;;
22628;SDS011;11481;53.694;9.910;2022-12-24T02:15:09;1.65;;;1.35;;
22628;SDS011;11481;53.694;9.910;2022-12-24T02:17:51;1.55;;;1.08;;
22628;SDS011;11481;53.694;9.910;2022-12-24T02:20:29;3.80;;;2.05;;
22628;SDS011;11481;53.694;9.910;2022-12-24T02:31:53;3.38;;;1.98;;
22628;SDS011;11481;53.694;9.910;2022-12-24T02:34:29;4.13;;;1.30;;
22628;SDS011;11481;53.694;9.910;2022-12-24T02:37:03;6.13;;;3.10;;
22628;SDS011;11481;53.694;9.910;2022-12-24T02:39:42;5.63;;;2.75;;
22628;SDS011;11481;53.694;9.910;2022-12-24T02:42:16;3.45;;;2.03;;
22628;SDS011;11481;53.694;9.910;2022-12-24T02:44:48;3.83;;;1.65;;
22628;SDS011;11481;53.694;9.910;2022-12-24T02:47:21;6.38;;;2.53;;
22628;SDS011;11481;53.694;9.910;2022-12-24T02:49:51;3.83;;;1.65;;
22628;SDS011;11481;53.694;9.910;2022-12-24T02:55:01;2.65;;;1.55;;
22628;SDS011;11481;53.694;9.910;2022-12-24T02:57:39;6.32;;;2.65;;
22628;SDS011;11481;53.694;9.910;2022-12-24T03:00:15;3.97;;;2.10;;
22628;SDS011;11481;53.694;9.910;2022-12-24T03:02:53;6.22;;;1.58;;
22628;SDS011;11481;53.694;9.910;2022-12-24T03:06:20;6.40;;;2.30;;
22628;SDS011;11481;53.694;9.910;2022-12-24T03:11:13;2.95;;;1.23;;
22628;SDS011;11481;53.694;9.910;2022-12-24T03:13:43;1.45;;;1.30;;
22628;SDS011;11481;53.694;9.910;2022-12-24T03:16:13;2.70;;;1.38;;
22628;SDS011;11481;53.694;9.910;2022-12-24T03:18:44;4.72;;;1.50;;
22628;SDS011;11481;53.694;9.910;2022-12-24T03:21:15;4.28;;;1.33;;
22628;SDS011;11481;53.694;9.910;2022-12-24T03:23:46;3.92;;;1.45;;
22628;SDS011;11481;53.694;9.910;2022-12-24T03:26:15;1.70;;;0.75;;
22628;SDS011;11481;53.694;9.910;2022-12-24T03:28:44;5.10;;;1.40;;
22628;SDS011;11481;53.694;9.910;2022-12-24T03:31:11;3.65;;;1.77;;
22628;SDS011;11481;53.694;9.910;2022-12-24T03:33:39;2.47;;;2.05;;
22628;SDS011;11481;53.694;9.910;2022-12-24T03:36:06;5.93;;;1.73;;
22628;SDS011;11481;53.694;9.910;2022-12-24T03:38:33;5.22;;;2.45;;
22628;SDS011;11481;53.694;9.910;2022-12-24T03:41:00;3.00;;;1.67;;
22628;SDS011;11481;53.694;9.910;2022-12-24T03:43:27;4.20;;;1.80;;
22628;SDS011;11481;53.694;9.910;2022-12-24T03:45:54;4.95;;;1.67;;
22628;SDS011;11481;53.694;9.910;2022-12-24T03:48:20;2.88;;;1.05;;
22628;SDS011;11481;53.694;9.910;2022-12-24T03:50:54;8.02;;;1.65;;
22628;SDS011;11481;53.694;9.910;2022-12-24T03:53:20;0.98;;;0.80;;
22628;SDS011;11481;53.694;9.910;2022-12-24T03:55:47;4.07;;;1.75;;
22628;SDS011;11481;53.694;9.910;2022-12-24T03:58:14;2.03;;;1.35;;
22628;SDS011;11481;53.694;9.910;2022-12-24T04:00:40;5.53;;;2.00;;
22628;SDS011;11481;53.694;9.910;2022-12-24T04:03:07;2.35;;;1.70;;
22628;SDS011;11481;53.694;9.910;2022-12-24T04:05:34;2.75;;;1.23;;
22628;SDS011;11481;53.694;9.910;2022-12-24T04:08:00;5.40;;;1.90;;
22628;SDS011;11481;53.694;9.910;2022-12-24T04:10:27;2.10;;;1.23;;
22628;SDS011;11481;53.694;9.910;2022-12-24T04:12:53;2.35;;;1.80;;
22628;SDS011;11481;53.694;9.910;2022-12-24T04:15:20;4.60;;;1.30;;
22628;SDS011;11481;53.694;9.910;2022-12-24T04:17:47;4.63;;;1.98;;
22628;SDS011;11481;53.694;9.910;2022-12-24T04:20:13;2.72;;;1.40;;
22628;SDS011;11481;53.694;9.910;2022-12-24T04:22:40;2.55;;;1.70;;
22628;SDS011;11481;53.694;9.910;2022-12-24T04:25:07;2.65;;;1.67;;
22628;SDS011;11481;53.694;9.910;2022-12-24T04:27:34;3.92;;;1.90;;
22628;SDS011;11481;53.694;9.910;2022-12-24T04:30:01;3.33;;;1.80;;
22628;SDS011;11481;53.694;9.910;2022-12-24T04:32:27;1.13;;;1.02;;
22628;SDS011;11481;53.694;9.910;2022-12-24T04:34:54;2.58;;;1.27;;
22628;SDS011;11481;53.694;9.910;2022-12-24T04:37:21;5.13;;;1.35;;
22628;SDS011;11481;53.694;9.910;2022-12-24T04:39:47;2.83;;;1.15;;
22628;SDS011;11481;53.694;9.910;2022-12-24T04:42:14;3.58;;;1.98;;
22628;SDS011;11481;53.694;9.910;2022-12-24T04:44:40;5.25;;;2.33;;
22628;SDS011;11481;53.694;9.910;2022-12-24T04:47:07;2.70;;;1.10;;
22628;SDS011;11481;53.694;9.910;2022-12-24T04:49:35;2.08;;;0.70;;
22628;SDS011;11481;53.694;9.910;2022-12-24T04:52:02;5.78;;;1.63;;
22628;SDS011;11481;53.694;9.910;2022-12-24T04:54:29;2.10;;;1.15;;
22628;SDS011;11481;53.694;9.910;2022-12-24T04:56:56;2.38;;;0.80;;
22628;SDS011;11481;53.694;9.910;2022-12-24T04:59:22;3.78;;;1.67;;
22628;SDS011;11481;53.694;9.910;2022-12-24T05:01:49;3.15;;;1.23;;
22628;SDS011;11481;53.694;9.910;2022-12-24T05:04:15;2.85;;;0.85;;
22628;SDS011;11481;53.694;9.910;2022-12-24T05:06:42;4.18;;;1.15;;
22628;SDS011;11481;53.694;9.910;2022-12-24T05:09:08;1.50;;;0.82;;
22628;SDS011;11481;53.694;9.910;2022-12-24T05:11:35;5.00;;;1.63;;
22628;SDS011;11481;53.694;9.910;2022-12-24T05:14:02;3.13;;;1.17;;
22628;SDS011;11481;53.694;9.910;2022-12-24T05:16:28;1.33;;;1.02;;
22628;SDS011;11481;53.694;9.910;2022-12-24T05:18:55;2.72;;;1.50;;
22628;SDS011;11481;53.694;9.910;2022-12-24T05:21:22;2.63;;;1.85;;
22628;SDS011;11481;53.694;9.910;2022-12-24T05:23:50;0.43;;;0.43;;
22628;SDS011;11481;53.694;9.910;2022-12-24T05:26:37;2.28;;;0.77;;
22628;SDS011;11481;53.694;9.910;2022-12-24T05:29:09;0.77;;;0.32;;
22628;SDS011;11481;53.694;9.910;2022-12-24T05:31:40;1.67;;;1.25;;
22628;SDS011;11481;53.694;9.910;2022-12-24T05:34:09;6.78;;;2.08;;
22628;SDS011;11481;53.694;9.910;2022-12-24T05:36:37;2.65;;;1.58;;
22628;SDS011;11481;53.694;9.910;2022-12-24T05:39:04;1.85;;;0.73;;
22628;SDS011;11481;53.694;9.910;2022-12-24T05:41:36;3.17;;;1.92;;
22628;SDS011;11481;53.694;9.910;2022-12-24T05:44:03;4.95;;;1.38;;
22628;SDS011;11481;53.694;9.910;2022-12-24T05:46:30;0.30;;;0.30;;
22628;SDS011;11481;53.694;9.910;2022-12-24T05:48:56;2.92;;;1.17;;
22628;SDS011;11481;53.694;9.910;2022-12-24T05:51:23;1.23;;;0.77;;
22628;SDS011;11481;53.694;9.910;2022-12-24T05:53:50;1.73;;;1.30;;
22628;SDS011;11481;53.694;9.910;2022-12-24T05:56:18;2.50;;;1.52;;
22628;SDS011;11481;53.694;9.910;2022-12-24T05:58:49;3.00;;;1.10;;
22628;SDS011;11481;53.694;9.910;2022-12-24T06:01:17;1.02;;;0.63;;
22628;SDS011;11481;53.694;9.910;2022-12-24T06:03:45;1.38;;;1.15;;
22628;SDS011;11481;53.694;9.910;2022-12-24T06:06:15;1.13;;;0.93;;
22628;SDS011;11481;53.694;9.910;2022-12-24T06:08:44;4.30;;;1.77;;
22628;SDS011;11481;53.694;9.910;2022-12-24T06:11:12;0.98;;;0.77;;
22628;SDS011;11481;53.694;9.910;2022-12-24T06:13:40;1.13;;;0.65;;
22628;SDS011;11481;53.694;9.910;2022-12-24T06:16:09;0.52;;;0.38;;
22628;SDS011;11481;53.694;9.910;2022-12-24T06:18:39;7.00;;;1.08;;
22628;SDS011;11481;53.694;9.910;2022-12-24T06:21:05;1.83;;;0.68;;
22628;SDS011;11481;53.694;9.910;2022-12-24T06:23:33;2.47;;;0.70;;
22628;SDS011;11481;53.694;9.910;2022-12-24T06:26:03;2.85;;;1.25;;
22628;SDS011;11481;53.694;9.910;2022-12-24T06:28:32;2.45;;;1.15;;
22628;SDS011;11481;53.694;9.910;2022-12-24T06:31:00;0.93;;;0.50;;
22628;SDS011;11481;53.694;9.910;2022-12-24T06:33:29;1.25;;;0.68;;
22628;SDS011;11481;53.694;9.910;2022-12-24T06:35:57;2.75;;;1.75;;
22628;SDS011;11481;53.694;9.910;2022-12-24T06:38:24;1.25;;;0.98;;
22628;SDS011;11481;53.694;9.910;2022-12-24T06:40:51;1.92;;;0.88;;
22628;SDS011;11481;53.694;9.910;2022-12-24T06:43:20;1.15;;;0.52;;
22628;SDS011;11481;53.694;9.910;2022-12-24T06:45:47;2.35;;;1.10;;
22628;SDS011;11481;53.694;9.910;2022-12-24T06:48:14;1.00;;;0.95;;
22628;SDS011;11481;53.694;9.910;2022-12-24T06:50:41;1.17;;;0.52;;
22628;SDS011;11481;53.694;9.910;2022-12-24T06:53:08;1.17;;;0.82;;
22628;SDS011;11481;53.694;9.910;2022-12-24T06:55:35;8.15;;;1.65;;
22628;SDS011;11481;53.694;9.910;2022-12-24T06:58:02;1.92;;;0.70;;
22628;SDS011;11481;53.694;9.910;2022-12-24T07:00:28;2.15;;;1.17;;
22628;SDS011;11481;53.694;9.910;2022-12-24T07:02:55;0.47;;;0.47;;
22628;SDS011;11481;53.694;9.910;2022-12-24T07:05:22;5.97;;;1.67;;
22628;SDS011;11481;53.694;9.910;2022-12-24T07:07:49;8.93;;;2.05;;
22628;SDS011;11481;53.694;9.910;2022-12-24T07:10:16;2.97;;;1.00;;
22628;SDS011;11481;53.694;9.910;2022-12-24T07:12:44;3.13;;;1.83;;
22628;SDS011;11481;53.694;9.910;2022-12-24T07:15:11;8.93;;;2.17;;
22628;SDS011;11481;53.694;9.910;2022-12-24T07:17:38;4.88;;;2.78;;
22628;SDS011;11481;53.694;9.910;2022-12-24T07:20:06;3.58;;;0.80;;
22628;SDS011;11481;53.694;9.910;2022-12-24T07:22:33;2.25;;;1.08;;
22628;SDS011;11481;53.694;9.910;2022-12-24T07:25:01;2.63;;;1.75;;
22628;SDS011;11481;53.694;9.910;2022-12-24T07:27:28;1.08;;;1.00;;
22628;SDS011;11481;53.694;9.910;2022-12-24T07:29:55;3.08;;;0.68;;
22628;SDS011;11481;53.694;9.910;2022-12-24T07:32:22;3.20;;;1.65;;
22628;SDS011;11481;53.694;9.910;2022-12-24T07:34:48;2.53;;;1.38;;
22628;SDS011;11481;53.694;9.910;2022-12-24T07:37:15;4.35;;;1.45;;
22628;SDS011;11481;53.694;9.910;2022-12-24T07:39:42;3.25;;;1.25;;
22628;SDS011;11481;53.694;9.910;2022-12-24T07:42:08;1.95;;;0.80;;
22628;SDS011;11481;53.694;9.910;2022-12-24T07:44:35;1.15;;;0.57;;
22628;SDS011;11481;53.694;9.910;2022-12-24T07:47:01;2.75;;;0.65;;
22628;SDS011;11481;53.694;9.910;2022-12-24T07:49:28;7.88;;;1.30;;
22628;SDS011;11481;53.694;9.910;2022-12-24T07:51:55;6.45;;;1.88;;
22628;SDS011;11481;53.694;9.910;2022-12-24T07:54:21;3.03;;;1.70;;
22628;SDS011;11481;53.694;9.910;2022-12-24T07:56:48;0.88;;;0.77;;
22628;SDS011;11481;53.694;9.910;2022-12-24T07:59:15;5.90;;;1.20;;
22628;SDS011;11481;53.694;9.910;2022-12-24T08:01:41;2.50;;;1.30;;
22628;SDS011;11481;53.694;9.910;2022-12-24T08:04:08;3.15;;;1.50;;
22628;SDS011;11481;53.694;9.910;2022-12-24T08:06:35;0.93;;;0.55;;
22628;SDS011;11481;53.694;9.910;2022-12-24T08:09:02;0.68;;;0.60;;
22628;SDS011;11481;53.694;9.910;2022-12-24T08:11:29;2.70;;;0.82;;
22628;SDS011;11481;53.694;9.910;2022-12-24T08:13:55;1.50;;;0.63;;
22628;SDS011;11481;53.694;9.910;2022-12-24T08:16:22;1.42;;;0.75;;
22628;SDS011;11481;53.694;9.910;2022-12-24T08:18:49;1.88;;;0.88;;
22628;SDS011;11481;53.694;9.910;2022-12-24T08:21:15;0.47;;;0.47;;
22628;SDS011;11481;53.694;9.910;2022-12-24T08:23:42;2.72;;;0.77;;
22628;SDS011;11481;53.694;9.910;2022-12-24T08:26:09;0.55;;;0.52;;
22628;SDS011;11481;53.694;9.910;2022-12-24T08:28:37;2.33;;;0.90;;
22628;SDS011;11481;53.694;9.910;2022-12-24T08:31:04;1.02;;;0.93;;
22628;SDS011;11481;53.694;9.910;2022-12-24T08:33:31;2.42;;;1.00;;
22628;SDS011;11481;53.694;9.910;2022-12-24T08:35:59;1.60;;;0.93;;
22628;SDS011;11481;53.694;9.910;2022-12-24T08:38:27;4.38;;;1.40;;
22628;SDS011;11481;53.694;9.910;2022-12-24T08:40:54;0.88;;;0.68;;
22628;SDS011;11481;53.694;9.910;2022-12-24T08:43:21;1.40;;;0.43;;
22628;SDS011;11481;53.694;9.910;2022-12-24T08:45:50;4.65;;;0.82;;
22628;SDS011;11481;53.694;9.910;2022-12-24T08:48:17;1.27;;;0.80;;
22628;SDS011;11481;53.694;9.910;2022-12-24T08:50:44;3.80;;;1.27;;
22628;SDS011;11481;53.694;9.910;2022-12-24T08:53:11;1.08;;;0.60;;
22628;SDS011;11481;53.694;9.910;2022-12-24T08:55:38;2.58;;;0.73;;
22628;SDS011;11481;53.694;9.910;2022-12-24T08:58:05;2.65;;;1.00;;
22628;SDS011;11481;53.694;9.910;2022-12-24T09:00:31;2.33;;;1.08;;
22628;SDS011;11481;53.694;9.910;2022-12-24T09:02:58;1.38;;;1.05;;
22628;SDS011;11481;53.694;9.910;2022-12-24T09:05:25;5.53;;;1.00;;
22628;SDS011;11481;53.694;9.910;2022-12-24T09:07:52;1.48;;;0.80;;
22628;SDS011;11481;53.694;9.910;2022-12-24T09:10:18;0.80;;;0.80;;
22628;SDS011;11481;53.694;9.910;2022-12-24T09:12:45;1.45;;;0.45;;
22628;SDS011;11481;53.694;9.910;2022-12-24T09:15:12;3.63;;;1.50;;
22628;SDS011;11481;53.694;9.910;2022-12-24T09:17:40;0.80;;;0.40;;
22628;SDS011;11481;53.694;9.910;2022-12-24T09:20:06;3.67;;;1.00;;
22628;SDS011;11481;53.694;9.910;2022-12-24T09:22:34;0.68;;;0.47;;
22628;SDS011;11481;53.694;9.910;2022-12-24T09:25:03;1.42;;;0.60;;
22628;SDS011;11481;53.694;9.910;2022-12-24T09:27:31;2.92;;;1.00;;
22628;SDS011;11481;53.694;9.910;2022-12-24T09:29:57;1.35;;;0.70;;
22628;SDS011;11481;53.694;9.910;2022-12-24T09:32:24;1.42;;;1.00;;
22628;SDS011;11481;53.694;9.910;2022-12-24T09:34:51;2.65;;;1.20;;
22628;SDS011;11481;53.694;9.910;2022-12-24T09:37:17;1.65;;;0.90;;
22628;SDS011;11481;53.694;9.910;2022-12-24T09:39:44;2.67;;;1.60;;
22628;SDS011;11481;53.694;9.910;2022-12-24T09:47:51;2.70;;;1.17;;
22628;SDS011;11481;53.694;9.910;2022-12-24T09:50:29;6.22;;;0.75;;
22628;SDS011;11481;53.694;9.910;2022-12-24T09:52:57;4.03;;;1.27;;
22628;SDS011;11481;53.694;9.910;2022-12-24T09:55:31;0.80;;;0.55;;
22628;SDS011;11481;53.694;9.910;2022-12-24T09:58:14;2.55;;;0.50;;
22628;SDS011;11481;53.694;9.910;2022-12-24T10:00:45;2.67;;;1.13;;
22628;SDS011;11481;53.694;9.910;2022-12-24T10:03:15;3.28;;;0.90;;
22628;SDS011;11481;53.694;9.910;2022-12-24T10:05:47;2.10;;;0.98;;
22628;SDS011;11481;53.694;9.910;2022-12-24T10:08:40;3.10;;;1.23;;
22628;SDS011;11481;53.694;9.910;2022-12-24T10:19:58;3.25;;;1.52;;
22628;SDS011;11481;53.694;9.910;2022-12-24T10:25:33;3.55;;;0.75;;
22628;SDS011;11481;53.694;9.910;2022-12-24T10:28:18;2.75;;;0.82;;
22628;SDS011;11481;53.694;9.910;2022-12-24T10:30:57;1.30;;;1.08;;
22628;SDS011;11481;53.694;9.910;2022-12-24T10:33:31;2.92;;;0.98;;
22628;SDS011;11481;53.694;9.910;2022-12-24T10:36:16;7.10;;;1.23;;
22628;SDS011;11481;53.694;9.910;2022-12-24T10:38:45;1.70;;;1.15;;
22628;SDS011;11481;53.694;9.910;2022-12-24T10:41:13;2.58;;;1.10;;
22628;SDS011;11481;53.694;9.910;2022-12-24T10:43:40;16.40;;;1.70;;
22628;SDS011;11481;53.694;9.910;2022-12-24T10:46:17;1.35;;;0.60;;
22628;SDS011;11481;53.694;9.910;2022-12-24T10:48:50;2.17;;;0.65;;
22628;SDS011;11481;53.694;9.910;2022-12-24T10:51:36;2.72;;;1.27;;
22628;SDS011;11481;53.694;9.910;2022-12-24T10:54:13;1.23;;;1.08;;
22628;SDS011;11481;53.694;9.910;2022-12-24T10:57:00;1.55;;;1.08;;
22628;SDS011;11481;53.694;9.910;2022-12-24T10:59:28;1.45;;;1.05;;
22628;SDS011;11481;53.694;9.910;2022-12-24T11:01:59;2.90;;;1.05;;
22628;SDS011;11481;53.694;9.910;2022-12-24T11:04:28;3.30;;;1.10;;
22628;SDS011;11481;53.694;9.910;2022-12-24T11:07:00;1.48;;;0.73;;
22628;SDS011;11481;53.694;9.910;2022-12-24T11:09:32;3.65;;;1.33;;
22628;SDS011;11481;53.694;9.910;2022-12-24T11:12:14;4.22;;;2.05;;
22628;SDS011;11481;53.694;9.910;2022-12-24T11:14:44;1.45;;;0.60;;
22628;SDS011;11481;53.694;9.910;2022-12-24T11:17:20;3.20;;;1.23;;
22628;SDS011;11481;53.694;9.910;2022-12-24T11:19:48;2.35;;;1.23;;
22628;SDS011;11481;53.694;9.910;2022-12-24T11:22:20;4.05;;;1.35;;
22628;SDS011;11481;53.694;9.910;2022-12-24T11:24:57;1.63;;;0.35;;
22628;SDS011;11481;53.694;9.910;2022-12-24T11:27:41;2.05;;;0.63;;
22628;SDS011;11481;53.694;9.910;2022-12-24T11:32:41;9.60;;;2.40;;
22628;SDS011;11481;53.694;9.910;2022-12-24T11:35:15;2.60;;;1.38;;
22628;SDS011;11481;53.694;9.910;2022-12-24T11:40:35;4.32;;;1.13;;
22628;SDS011;11481;53.694;9.910;2022-12-24T11:43:03;4.82;;;1.90;;
22628;SDS011;11481;53.694;9.910;2022-12-24T11:45:39;2.72;;;1.55;;
22628;SDS011;11481;53.694;9.910;2022-12-24T11:50:58;5.07;;;2.25;;
22628;SDS011;11481;53.694;9.910;2022-12-24T11:53:40;3.22;;;1.33;;
22628;SDS011;11481;53.694;9.910;2022-12-24T11:56:12;2.17;;;1.42;;
22628;SDS011;11481;53.694;9.910;2022-12-24T11:58:50;7.55;;;1.83;;
22628;SDS011;11481;53.694;9.910;2022-12-24T12:01:25;5.10;;;1.63;;
22628;SDS011;11481;53.694;9.910;2022-12-24T12:04:19;5.32;;;2.10;;
22628;SDS011;11481;53.694;9.910;2022-12-24T12:09:29;5.22;;;1.67;;
22628;SDS011;11481;53.694;9.910;2022-12-24T12:12:07;3.35;;;1.50;;
22628;SDS011;11481;53.694;9.910;2022-12-24T12:14:42;3.30;;;1.27;;
22628;SDS011;11481;53.694;9.910;2022-12-24T12:25:30;1.80;;;0.98;;
22628;SDS011;11481;53.694;9.910;2022-12-24T12:28:01;2.95;;;1.42;;
22628;SDS011;11481;53.694;9.910;2022-12-24T12:30:31;5.20;;;2.15;;
22628;SDS011;11481;53.694;9.910;2022-12-24T12:35:42;3.72;;;1.35;;
22628;SDS011;11481;53.694;9.910;2022-12-24T12:38:17;4.95;;;2.33;;
22628;SDS011;11481;53.694;9.910;2022-12-24T12:41:06;4.47;;;1.98;;
22628;SDS011;11481;53.694;9.910;2022-12-24T12:46:27;8.45;;;2.17;;
22628;SDS011;11481;53.694;9.910;2022-12-24T12:49:39;3.95;;;1.45;;
22628;SDS011;11481;53.694;9.910;2022-12-24T12:57:58;7.68;;;2.70;;
22628;SDS011;11481;53.694;9.910;2022-12-24T13:00:29;3.72;;;2.13;;
22628;SDS011;11481;53.694;9.910;2022-12-24T13:11:48;7.10;;;3.08;;
22628;SDS011;11481;53.694;9.910;2022-12-24T13:17:19;5.47;;;2.63;;
22628;SDS011;11481;53.694;9.910;2022-12-24T13:22:35;5.88;;;2.92;;
22628;SDS011;11481;53.694;9.910;2022-12-24T13:25:02;6.35;;;2.97;;
22628;SDS011;11481;53.694;9.910;2022-12-24T13:27:30;13.10;;;2.70;;
22628;SDS011;11481;53.694;9.910;2022-12-24T13:30:05;5.63;;;3.00;;
22628;SDS011;11481;53.694;9.910;2022-12-24T13:32:53;6.05;;;2.58;;
22628;SDS011;11481;53.694;9.910;2022-12-24T13:37:47;7.13;;;2.47;;
22628;SDS011;11481;53.694;9.910;2022-12-24T13:40:21;6.05;;;2.55;;
22628;SDS011;11481;53.694;9.910;2022-12-24T13:48:40;4.65;;;1.90;;
22628;SDS011;11481;53.694;9.910;2022-12-24T13:51:00;7.22;;;3.08;;
22628;SDS011;11481;53.694;9.910;2022-12-24T13:53:45;5.72;;;2.95;;
22628;SDS011;11481;53.694;9.910;2022-12-24T13:58:44;7.00;;;3.00;;
22628;SDS011;11481;53.694;9.910;2022-12-24T14:01:14;5.75;;;2.78;;
22628;SDS011;11481;53.694;9.910;2022-12-24T14:03:49;8.80;;;4.65;;
22628;SDS011;11481;53.694;9.910;2022-12-24T14:08:50;10.15;;;4.53;;
22628;SDS011;11481;53.694;9.910;2022-12-24T14:11:21;9.57;;;4.03;;
22628;SDS011;11481;53.694;9.910;2022-12-24T14:16:27;5.60;;;2.55;;
22628;SDS011;11481;53.694;9.910;2022-12-24T14:22:02;8.50;;;3.33;;
22628;SDS011;11481;53.694;9.910;2022-12-24T14:24:42;10.23;;;3.92;;
22628;SDS011;11481;53.694;9.910;2022-12-24T14:27:32;13.65;;;4.45;;
22628;SDS011;11481;53.694;9.910;2022-12-24T14:32:45;11.32;;;3.67;;
22628;SDS011;11481;53.694;9.910;2022-12-24T14:38:05;10.02;;;2.88;;
22628;SDS011;11481;53.694;9.910;2022-12-24T14:40:40;8.77;;;2.72;;
22628;SDS011;11481;53.694;9.910;2022-12-24T14:43:21;9.25;;;2.53;;
22628;SDS011;11481;53.694;9.910;2022-12-24T14:48:56;8.25;;;3.65;;
22628;SDS011;11481;53.694;9.910;2022-12-24T14:51:48;7.85;;;2.70;;
22628;SDS011;11481;53.694;9.910;2022-12-24T14:59:43;10.63;;;3.15;;
22628;SDS011;11481;53.694;9.910;2022-12-24T15:05:19;10.93;;;4.57;;
22628;SDS011;11481;53.694;9.910;2022-12-24T15:07:57;10.80;;;2.92;;
22628;SDS011;11481;53.694;9.910;2022-12-24T15:10:30;9.98;;;2.55;;
22628;SDS011;11481;53.694;9.910;2022-12-24T15:13:01;9.50;;;2.72;;
22628;SDS011;11481;53.694;9.910;2022-12-24T15:15:30;8.68;;;3.70;;
22628;SDS011;11481;53.694;9.910;2022-12-24T15:17:58;5.60;;;2.97;;
22628;SDS011;11481;53.694;9.910;2022-12-24T15:20:27;4.10;;;2.80;;
22628;SDS011;11481;53.694;9.910;2022-12-24T15:22:55;9.50;;;2.53;;
22628;SDS011;11481;53.694;9.910;2022-12-24T15:27:55;17.13;;;4.00;;
22628;SDS011;11481;53.694;9.910;2022-12-24T15:30:23;15.73;;;2.80;;
22628;SDS011;11481;53.694;9.910;2022-12-24T15:32:54;5.70;;;2.55;;
22628;SDS011;11481;53.694;9.910;2022-12-24T15:35:32;10.02;;;3.85;;
22628;SDS011;11481;53.694;9.910;2022-12-24T15:38:00;6.82;;;3.08;;
22628;SDS011;11481;53.694;9.910;2022-12-24T15:40:28;12.40;;;2.90;;
22628;SDS011;11481;53.694;9.910;2022-12-24T15:42:58;10.98;;;2.97;;
22628;SDS011;11481;53.694;9.910;2022-12-24T15:45:28;5.47;;;2.40;;
22628;SDS011;11481;53.694;9.910;2022-12-24T15:48:08;6.82;;;2.75;;
22628;SDS011;11481;53.694;9.910;2022-12-24T15:50:37;7.47;;;2.65;;
22628;SDS011;11481;53.694;9.910;2022-12-24T15:53:13;11.38;;;2.95;;
22628;SDS011;11481;53.694;9.910;2022-12-24T15:55:46;11.48;;;3.38;;
22628;SDS011;11481;53.694;9.910;2022-12-24T15:58:39;7.40;;;3.17;;
22628;SDS011;11481;53.694;9.910;2022-12-24T16:03:35;17.00;;;3.63;;
22628;SDS011;11481;53.694;9.910;2022-12-24T16:06:05;6.85;;;3.03;;
22628;SDS011;11481;53.694;9.910;2022-12-24T16:08:37;13.10;;;3.15;;
22628;SDS011;11481;53.694;9.910;2022-12-24T16:11:09;11.30;;;2.85;;
22628;SDS011;11481;53.694;9.910;2022-12-24T16:13:39;13.30;;;2.85;;
22628;SDS011;11481;53.694;9.910;2022-12-24T16:16:20;5.70;;;2.00;;
22628;SDS011;11481;53.694;9.910;2022-12-24T16:18:58;6.20;;;2.67;;
22628;SDS011;11481;53.694;9.910;2022-12-24T16:21:36;4.15;;;2.38;;
22628;SDS011;11481;53.694;9.910;2022-12-24T16:24:21;6.45;;;1.85;;
22628;SDS011;11481;53.694;9.910;2022-12-24T16:26:55;9.45;;;2.33;;
22628;SDS011;11481;53.694;9.910;2022-12-24T16:29:23;8.02;;;1.60;;
22628;SDS011;11481;53.694;9.910;2022-12-24T16:31:53;11.07;;;2.50;;
22628;SDS011;11481;53.694;9.910;2022-12-24T16:34:26;4.00;;;2.05;;
22628;SDS011;11481;53.694;9.910;2022-12-24T16:36:57;13.20;;;2.15;;
22628;SDS011;11481;53.694;9.910;2022-12-24T16:39:28;6.22;;;2.15;;
22628;SDS011;11481;53.694;9.910;2022-12-24T16:41:57;8.55;;;4.25;;
22628;SDS011;11481;53.694;9.910;2022-12-24T16:44:44;7.20;;;3.03;;
22628;SDS011;11481;53.694;9.910;2022-12-24T16:47:12;9.50;;;2.05;;
22628;SDS011;11481;53.694;9.910;2022-12-24T16:49:44;3.17;;;1.90;;
22628;SDS011;11481;53.694;9.910;2022-12-24T16:52:15;3.03;;;1.60;;
22628;SDS011;11481;53.694;9.910;2022-12-24T16:54:47;2.38;;;1.02;;
22628;SDS011;11481;53.694;9.910;2022-12-24T16:57:15;3.10;;;1.88;;
22628;SDS011;11481;53.694;9.910;2022-12-24T16:59:42;6.18;;;1.90;;
22628;SDS011;11481;53.694;9.910;2022-12-24T17:02:09;6.78;;;1.75;;
22628;SDS011;11481;53.694;9.910;2022-12-24T17:04:40;6.82;;;2.15;;